createdAt,value
2022-11-22T00:00:07.987Z,99783.78
2022-11-22T00:02:09.516Z,99788.97
2022-11-22T00:04:10.982Z,99786.38
2022-11-22T00:06:12.424Z,99782.94
2022-11-22T00:08:13.993Z,99788.13
2022-11-22T00:10:15.963Z,99780.34
2022-11-22T00:12:17.583Z,99783.78
2022-11-22T00:14:19.037Z,99788.97
2022-11-22T00:16:20.468Z,99784.66
2022-11-22T00:18:21.910Z,99782.91
2022-11-22T00:20:23.406Z,99775.13
2022-11-22T00:22:24.941Z,99776.00
2022-11-22T00:24:26.357Z,99774.25
2022-11-22T00:26:27.862Z,99769.94
2022-11-22T00:28:29.332Z,99760.41
2022-11-22T00:30:30.765Z,99767.34
2022-11-22T00:32:32.327Z,99756.09
2022-11-22T00:34:33.849Z,99754.34
2022-11-22T00:36:35.327Z,99747.44
2022-11-22T00:38:36.859Z,99736.19
2022-11-22T00:40:38.288Z,99744.84
2022-11-22T00:42:39.752Z,99737.91
2022-11-22T00:44:41.191Z,99739.66
2022-11-22T00:46:42.797Z,99725.81
2022-11-22T00:48:44.292Z,99729.25
2022-11-22T00:50:49.012Z,99724.06
2022-11-22T00:52:50.466Z,99716.31
2022-11-22T00:54:54.971Z,99710.25
2022-11-22T00:56:56.745Z,99716.28
2022-11-22T00:58:58.267Z,99722.34
2022-11-22T01:00:59.787Z,99720.63
2022-11-22T01:03:01.251Z,99713.69
2022-11-22T01:05:03.313Z,99721.47
2022-11-22T01:07:04.901Z,99718.00
2022-11-22T01:09:06.411Z,99722.34
2022-11-22T01:11:07.960Z,99711.09
2022-11-22T01:13:10.057Z,99708.47
2022-11-22T01:15:11.888Z,99708.50
2022-11-22T01:17:13.449Z,99708.50
2022-11-22T01:19:15.373Z,99722.31
2022-11-22T01:21:16.809Z,99721.47
2022-11-22T01:23:18.277Z,99721.47
2022-11-22T01:25:19.767Z,99721.44
2022-11-22T01:27:21.355Z,99714.53
2022-11-22T01:29:22.810Z,99721.44
2022-11-22T01:31:24.492Z,99711.94
2022-11-22T01:33:26.049Z,99717.13
2022-11-22T01:35:27.519Z,99717.13
2022-11-22T01:37:28.950Z,99724.91
2022-11-22T01:39:30.491Z,99724.03
2022-11-22T01:41:32.091Z,99723.16
2022-11-22T01:43:33.551Z,99720.56
2022-11-22T01:45:41.251Z,99716.22
2022-11-22T01:47:42.869Z,99716.22
2022-11-22T01:50:06.532Z,99710.16
2022-11-22T01:52:14.131Z,99707.56
2022-11-22T01:54:20.765Z,99720.53
2022-11-22T01:56:23.627Z,99714.47
2022-11-22T01:58:27.504Z,99715.34
2022-11-22T02:00:28.962Z,99716.22
2022-11-22T02:02:30.712Z,99713.59
2022-11-22T02:04:33.713Z,99710.13
2022-11-22T02:07:04.446Z,99704.94
2022-11-22T02:09:14.825Z,99710.13
2022-11-22T02:11:18.407Z,99707.53
2022-11-22T02:13:22.460Z,99698.88
2022-11-22T02:15:23.902Z,99699.72
2022-11-22T02:17:26.760Z,99690.22
2022-11-22T02:19:41.739Z,99678.09
2022-11-22T02:21:49.637Z,99668.56
2022-11-22T02:24:00.733Z,99677.22
2022-11-22T02:26:02.864Z,99678.09
2022-11-22T02:28:05.223Z,99675.50
2022-11-22T02:30:07.624Z,99674.63
2022-11-22T02:32:09.080Z,99669.44
2022-11-22T02:34:12.778Z,99666.81
2022-11-22T02:36:14.251Z,99659.91
2022-11-22T02:38:19.301Z,99659.03
2022-11-22T02:40:22.115Z,99653.00
2022-11-22T02:42:26.015Z,99665.09
2022-11-22T02:44:27.726Z,99670.28
2022-11-22T02:46:29.168Z,99670.28
2022-11-22T02:48:30.637Z,99656.44
2022-11-22T02:50:32.100Z,99653.00
2022-11-22T02:52:33.623Z,99651.25
2022-11-22T02:54:35.041Z,99652.09
2022-11-22T02:56:36.494Z,99648.63
2022-11-22T02:58:38.155Z,99640.84
2022-11-22T03:00:39.748Z,99634.78
2022-11-22T03:02:41.399Z,99636.50
2022-11-22T03:04:42.817Z,99635.63
2022-11-22T03:06:44.279Z,99641.69
2022-11-22T03:08:53.201Z,99647.72
2022-11-22T03:10:59.020Z,99644.25
2022-11-22T03:13:00.499Z,99644.25
2022-11-22T03:15:01.976Z,99645.13
2022-11-22T03:17:03.450Z,99643.38
2022-11-22T03:19:04.900Z,99639.03
2022-11-22T03:21:09.519Z,99634.72
2022-11-22T03:23:11.044Z,99629.50
2022-11-22T03:25:12.498Z,99622.56
2022-11-22T03:27:13.931Z,99626.03
2022-11-22T03:29:16.977Z,99626.00
2022-11-22T03:31:18.410Z,99631.22
2022-11-22T03:33:19.880Z,99627.75
2022-11-22T03:35:21.510Z,99624.25
2022-11-22T03:37:23.016Z,99620.78
2022-11-22T03:39:24.567Z,99619.91
2022-11-22T03:41:26.056Z,99619.03
2022-11-22T03:43:27.611Z,99618.16
2022-11-22T03:45:29.622Z,99619.00
2022-11-22T03:47:31.068Z,99615.53
2022-11-22T03:49:32.803Z,99625.91
2022-11-22T03:51:34.363Z,99632.84
2022-11-22T03:53:35.860Z,99626.75
2022-11-22T03:55:37.496Z,99612.03
2022-11-22T03:57:38.954Z,99622.44
2022-11-22T03:59:40.438Z,99629.31
2022-11-22T04:01:41.928Z,99630.19
2022-11-22T04:03:43.401Z,99627.59
2022-11-22T04:05:45.660Z,99618.94
2022-11-22T04:07:47.287Z,99612.00
2022-11-22T04:09:48.810Z,99614.56
2022-11-22T04:11:50.289Z,99605.03
2022-11-22T04:14:10.121Z,99605.91
2022-11-22T04:16:11.629Z,99612.84
2022-11-22T04:18:13.957Z,99625.81
2022-11-22T04:20:43.346Z,99631.88
2022-11-22T04:22:44.802Z,99631.03
2022-11-22T04:25:04.892Z,99626.69
2022-11-22T04:27:06.405Z,99624.97
2022-11-22T04:29:10.287Z,99613.69
2022-11-22T04:31:30.759Z,99622.34
2022-11-22T04:33:32.276Z,99624.06
2022-11-22T04:35:33.785Z,99619.75
2022-11-22T04:37:35.220Z,99616.28
2022-11-22T04:39:36.690Z,99615.38
2022-11-22T04:41:38.159Z,99618.84
2022-11-22T04:43:58.178Z,99625.78
2022-11-22T04:45:59.605Z,99624.91
2022-11-22T04:48:01.127Z,99616.22
2022-11-22T04:50:04.284Z,99620.56
2022-11-22T04:52:24.514Z,99624.88
2022-11-22T04:54:26.056Z,99624.03
2022-11-22T04:56:27.511Z,99623.16
2022-11-22T04:58:29.151Z,99626.59
2022-11-22T05:00:31.906Z,99626.59
2022-11-22T05:02:33.380Z,99618.78
2022-11-22T05:04:34.863Z,99631.81
2022-11-22T05:06:36.934Z,99625.72
2022-11-22T05:08:38.368Z,99617.94
2022-11-22T05:10:59.481Z,99623.13
2022-11-22T05:13:00.918Z,99625.72
2022-11-22T05:15:02.438Z,99627.44
2022-11-22T05:17:03.948Z,99629.19
2022-11-22T05:19:05.516Z,99634.38
2022-11-22T05:21:12.785Z,99630.03
2022-11-22T05:23:33.399Z,99629.16
2022-11-22T05:25:34.848Z,99636.06
2022-11-22T05:27:36.329Z,99639.53
2022-11-22T05:29:37.780Z,99640.41
2022-11-22T05:31:39.963Z,99636.09
2022-11-22T05:33:43.145Z,99643.88
2022-11-22T05:35:44.598Z,99652.50
2022-11-22T05:37:46.063Z,99655.97
2022-11-22T05:39:47.535Z,99658.56
2022-11-22T05:41:55.952Z,99655.97
2022-11-22T05:43:58.186Z,99648.16
2022-11-22T05:46:11.343Z,99655.94
2022-11-22T05:48:12.794Z,99656.81
2022-11-22T05:50:14.247Z,99650.75
2022-11-22T05:52:15.674Z,99655.06
2022-11-22T05:54:17.214Z,99653.34
2022-11-22T05:56:23.428Z,99649.88
2022-11-22T05:58:24.883Z,99647.25
2022-11-22T06:00:26.661Z,99643.78
2022-11-22T06:02:28.169Z,99650.72
2022-11-22T06:04:29.810Z,99646.38
2022-11-22T06:06:31.339Z,99643.78
2022-11-22T06:08:38.153Z,99650.72
2022-11-22T06:10:39.662Z,99655.03
2022-11-22T06:12:41.115Z,99647.22
2022-11-22T06:14:43.651Z,99648.97
2022-11-22T06:16:45.277Z,99643.75
2022-11-22T06:18:46.915Z,99653.28
2022-11-22T06:20:48.567Z,99640.28
2022-11-22T06:22:50.004Z,99646.31
2022-11-22T06:24:51.428Z,99650.63
2022-11-22T06:26:52.884Z,99656.66
2022-11-22T06:28:55.054Z,99657.53
2022-11-22T06:31:04.559Z,99661.88
2022-11-22T06:33:06.136Z,99666.22
2022-11-22T06:35:07.934Z,99658.41
2022-11-22T06:37:09.458Z,99648.88
2022-11-22T06:39:10.964Z,99650.59
2022-11-22T06:41:14.847Z,99647.13
2022-11-22T06:43:16.282Z,99649.72
2022-11-22T06:45:18.084Z,99641.91
2022-11-22T06:47:19.577Z,99637.56
2022-11-22T06:49:21.009Z,99634.13
2022-11-22T06:51:28.584Z,99634.09
2022-11-22T06:53:46.907Z,99636.69
2022-11-22T06:55:50.932Z,99633.22
2022-11-22T06:57:53.410Z,99631.50
2022-11-22T06:59:54.929Z,99634.09
2022-11-22T07:01:59.012Z,99635.81
2022-11-22T07:04:05.138Z,99638.41
2022-11-22T07:06:08.318Z,99647.03
2022-11-22T07:08:13.785Z,99650.50
2022-11-22T07:10:15.930Z,99641.00
2022-11-22T07:12:17.366Z,99651.38
2022-11-22T07:14:19.111Z,99655.69
2022-11-22T07:16:21.826Z,99646.16
2022-11-22T07:18:24.100Z,99654.81
2022-11-22T07:20:25.584Z,99656.53
2022-11-22T07:22:27.059Z,99666.91
2022-11-22T07:24:28.772Z,99672.09
2022-11-22T07:26:30.235Z,99669.50
2022-11-22T07:28:31.881Z,99674.69
2022-11-22T07:30:33.336Z,99677.28
2022-11-22T07:32:34.827Z,99685.91
2022-11-22T07:34:36.303Z,99694.56
2022-11-22T07:36:37.831Z,99697.16
2022-11-22T07:38:39.394Z,99705.81
2022-11-22T07:40:40.829Z,99706.66
2022-11-22T07:42:42.277Z,99703.16
2022-11-22T07:44:43.704Z,99704.91
2022-11-22T07:46:45.210Z,99698.81
2022-11-22T07:48:48.317Z,99704.84
2022-11-22T07:50:49.764Z,99705.69
2022-11-22T07:52:58.342Z,99703.94
2022-11-22T07:54:59.810Z,99703.09
2022-11-22T07:57:01.237Z,99709.13
2022-11-22T07:59:02.676Z,99718.66
2022-11-22T08:01:09.404Z,99722.13
2022-11-22T08:03:13.249Z,99719.50
2022-11-22T08:05:19.105Z,99719.50
2022-11-22T08:07:20.560Z,99720.38
2022-11-22T08:09:21.988Z,99714.31
2022-11-22T08:11:23.403Z,99717.78
2022-11-22T08:13:25.146Z,99714.28
2022-11-22T08:15:26.988Z,99715.13
2022-11-22T08:17:28.393Z,99721.19
2022-11-22T08:19:31.157Z,99722.03
2022-11-22T08:21:32.719Z,99723.72
2022-11-22T08:23:35.144Z,99732.38
2022-11-22T08:25:36.625Z,99729.78
2022-11-22T08:27:40.261Z,99735.84
2022-11-22T08:29:41.665Z,99734.09
2022-11-22T08:31:43.102Z,99738.41
2022-11-22T08:33:44.666Z,99742.72
2022-11-22T08:35:49.905Z,99740.97
2022-11-22T08:37:55.533Z,99742.69
2022-11-22T08:39:57.287Z,99738.34
2022-11-22T08:41:58.878Z,99738.34
2022-11-22T08:44:00.285Z,99733.09
2022-11-22T08:46:02.251Z,99734.81
2022-11-22T08:48:03.878Z,99741.72
2022-11-22T08:50:05.907Z,99743.44
2022-11-22T08:52:07.334Z,99744.28
2022-11-22T08:54:08.722Z,99739.94
2022-11-22T08:56:13.315Z,99752.94
2022-11-22T08:58:14.900Z,99750.28
2022-11-22T09:00:16.709Z,99750.28
2022-11-22T09:02:18.136Z,99756.34
2022-11-22T09:04:19.547Z,99760.69
2022-11-22T09:08:47.244Z,99758.91
2022-11-22T09:10:50.743Z,99767.56
2022-11-22T09:12:52.167Z,99760.59
2022-11-22T09:14:53.575Z,99762.31
2022-11-22T09:16:55.064Z,99760.56
2022-11-22T09:18:56.988Z,99764.00
2022-11-22T09:21:03.394Z,99763.13
2022-11-22T09:23:04.826Z,99760.47
2022-11-22T09:25:06.592Z,99762.19
2022-11-22T09:27:08.031Z,99766.50
2022-11-22T09:29:09.470Z,99769.06
2022-11-22T09:31:16.890Z,99776.81
2022-11-22T09:33:18.645Z,99776.78
2022-11-22T09:35:20.258Z,99779.34
2022-11-22T09:37:21.661Z,99777.63
2022-11-22T09:39:23.095Z,99772.38
2022-11-22T09:41:55.729Z,99772.34
2022-11-22T09:44:15.575Z,99771.47
2022-11-22T09:46:40.941Z,99773.19
2022-11-22T09:48:59.943Z,99770.53
2022-11-22T09:51:17.218Z,99780.06
2022-11-22T09:53:25.577Z,99776.56
2022-11-22T09:55:39.541Z,99779.16
2022-11-22T09:57:47.799Z,99778.25
2022-11-22T09:59:58.861Z,99782.56
2022-11-22T10:02:18.867Z,99785.94
2022-11-22T10:04:37.578Z,99781.47
2022-11-22T10:06:45.788Z,99785.69
2022-11-22T10:08:59.302Z,99786.47
2022-11-22T10:11:03.213Z,99788.13
2022-11-22T10:13:29.332Z,99798.47
2022-11-22T10:15:53.073Z,99802.75
2022-11-22T10:17:59.185Z,99785.25
2022-11-22T10:20:03.573Z,99786.00
2022-11-22T10:22:12.799Z,99787.63
2022-11-22T10:24:16.427Z,99784.06
2022-11-22T10:26:26.563Z,99779.53
2022-11-22T10:28:35.429Z,99782.84
2022-11-22T10:30:39.513Z,99783.56
2022-11-22T10:33:04.543Z,99792.09
2022-11-22T10:35:23.717Z,99781.41
2022-11-22T10:37:37.047Z,99776.88
2022-11-22T10:40:00.006Z,99766.03
2022-11-22T10:42:19.622Z,99772.69
2022-11-22T10:44:35.658Z,99768.63
2022-11-22T10:46:40.056Z,99765.38
2022-11-22T10:48:47.565Z,99767.28
2022-11-22T10:51:08.828Z,99769.03
2022-11-22T10:53:24.514Z,99772.50
2022-11-22T10:55:53.708Z,99774.00
2022-11-22T10:58:15.915Z,99778.38
2022-11-22T11:00:24.452Z,99774.09
2022-11-22T11:02:47.519Z,99772.34
2022-11-22T11:04:50.883Z,99764.44
2022-11-22T11:07:11.859Z,99768.47
2022-11-22T11:10:09.032Z,99763.13
2022-11-22T11:11:46.003Z,99768.59
2022-11-22T11:13:52.723Z,99768.59
2022-11-22T11:15:57.688Z,99756.84
2022-11-22T11:18:02.663Z,99761.34
2022-11-22T11:20:13.945Z,99760.34
2022-11-22T11:22:50.458Z,99759.31
2022-11-22T11:24:47.058Z,99758.03
2022-11-22T11:26:54.390Z,99762.56
2022-11-22T11:29:17.735Z,99755.97
2022-11-22T11:31:21.614Z,99760.31
2022-11-22T11:33:31.534Z,99767.88
2022-11-22T11:35:34.348Z,99757.75
2022-11-22T11:37:39.073Z,99743.91
2022-11-22T11:39:46.635Z,99742.50
2022-11-22T11:41:48.404Z,99734.72
2022-11-22T11:43:52.440Z,99733.81
2022-11-22T11:45:53.916Z,99738.97
2022-11-22T11:47:55.728Z,99739.88
2022-11-22T11:49:57.140Z,99747.03
2022-11-22T11:52:01.561Z,99742.78
2022-11-22T11:54:11.609Z,99744.66
2022-11-22T11:56:32.132Z,99747.41
2022-11-22T11:58:33.632Z,99750.13
2022-11-22T12:00:38.409Z,99750.22
2022-11-22T12:02:46.360Z,99759.06
2022-11-22T12:04:53.010Z,99749.50
2022-11-22T12:07:16.186Z,99750.34
2022-11-22T12:09:29.109Z,99745.13
2022-11-22T12:11:42.762Z,99751.34
2022-11-22T12:14:18.551Z,99750.50
2022-11-22T12:16:28.808Z,99747.06
2022-11-22T12:18:44.141Z,99748.19
2022-11-22T12:21:14.784Z,99759.63
2022-11-22T12:23:50.749Z,99760.59
2022-11-22T12:25:56.478Z,99757.16
2022-11-22T12:28:00.350Z,99757.16
2022-11-22T12:30:01.902Z,99762.38
2022-11-22T12:32:28.378Z,99751.94
2022-11-22T12:34:35.426Z,99752.00
2022-11-22T12:36:55.608Z,99755.53
2022-11-22T12:39:01.889Z,99753.84
2022-11-22T12:41:09.734Z,99748.66
2022-11-22T12:43:23.416Z,99748.69
2022-11-22T12:45:27.608Z,99756.56
2022-11-22T12:47:35.559Z,99753.91
2022-11-22T12:49:42.988Z,99753.94
2022-11-22T12:51:50.887Z,99754.84
2022-11-22T12:53:55.689Z,99750.50
2022-11-22T12:56:35.341Z,99747.03
2022-11-22T12:59:15.603Z,99749.72
2022-11-22T13:01:24.986Z,99749.72
2022-11-22T13:03:33.182Z,99747.13
2022-11-22T13:05:48.507Z,99755.03
2022-11-22T13:07:53.982Z,99753.31
2022-11-22T13:10:03.032Z,99745.44
2022-11-22T13:12:09.955Z,99753.31
2022-11-22T13:14:20.984Z,99762.91
2022-11-22T13:16:22.878Z,99761.22
2022-11-22T13:18:36.353Z,99761.34
2022-11-22T13:20:45.084Z,99758.69
2022-11-22T13:23:12.683Z,99751.66
2022-11-22T13:25:45.469Z,99748.09
2022-11-22T13:27:50.345Z,99749.81
2022-11-22T13:29:56.427Z,99748.94
2022-11-22T13:32:15.437Z,99748.91
2022-11-22T13:34:26.393Z,99748.94
2022-11-22T13:36:27.794Z,99746.31
2022-11-22T13:38:29.364Z,99744.59
2022-11-22T13:40:42.469Z,99739.28
2022-11-22T13:42:43.984Z,99744.53
2022-11-22T13:44:57.471Z,99749.78
2022-11-22T13:47:12.190Z,99760.31
2022-11-22T13:49:37.410Z,99759.44
2022-11-22T13:51:57.637Z,99762.25
2022-11-22T13:54:33.194Z,99768.47
2022-11-22T13:56:40.727Z,99760.72
2022-11-22T13:58:50.981Z,99763.34
2022-11-22T14:00:57.364Z,99764.25
2022-11-22T14:03:21.115Z,99764.25
2022-11-22T14:05:40.979Z,99771.25
2022-11-22T14:07:44.792Z,99766.91
2022-11-22T14:09:52.382Z,99765.22
2022-11-22T14:11:56.750Z,99765.31
2022-11-22T14:14:01.129Z,99762.72
2022-11-22T14:16:20.945Z,99759.28
2022-11-22T14:18:43.348Z,99751.53
2022-11-22T14:21:02.216Z,99748.97
2022-11-22T14:23:24.752Z,99761.34
2022-11-22T14:25:43.727Z,99759.63
2022-11-22T14:28:08.327Z,99759.69
2022-11-22T14:30:19.769Z,99754.53
2022-11-22T14:32:23.758Z,99745.81
2022-11-22T14:34:27.917Z,99749.31
2022-11-22T14:36:29.439Z,99752.81
2022-11-22T14:38:35.900Z,99751.97
2022-11-22T14:40:39.683Z,99743.25
2022-11-22T14:42:43.435Z,99745.91
2022-11-22T14:44:46.755Z,99739.84
2022-11-22T14:47:17.782Z,99748.66
2022-11-22T14:49:48.347Z,99754.81
2022-11-22T14:51:55.336Z,99757.44
2022-11-22T14:54:00.690Z,99755.72
2022-11-22T14:56:12.354Z,99756.56
2022-11-22T14:58:20.441Z,99757.47
2022-11-22T15:00:23.980Z,99757.50
2022-11-22T15:03:00.703Z,99759.25
2022-11-22T15:09:11.391Z,99754.09
2022-11-22T15:09:12.523Z,99759.31
2022-11-22T15:10:33.843Z,99757.63
2022-11-22T15:12:47.268Z,99760.25
2022-11-22T15:57:44.937Z,99797.44
2022-11-22T15:59:49.516Z,99803.56
2022-11-22T16:01:53.991Z,99804.41
2022-11-22T16:03:57.989Z,99802.69
2022-11-22T16:06:08.156Z,99803.56
2022-11-22T16:08:15.417Z,99796.63
2022-11-22T16:10:24.449Z,99804.50
2022-11-22T16:12:36.102Z,99809.72
2022-11-22T16:14:47.821Z,99807.13
2022-11-22T16:16:49.303Z,99811.50
2022-11-22T16:18:53.083Z,99805.41
2022-11-22T16:21:18.499Z,99807.19
2022-11-22T16:23:25.943Z,99815.03
2022-11-22T16:25:33.656Z,99813.34
2022-11-22T16:27:35.377Z,99811.63
2022-11-22T16:29:37.629Z,99814.19
2022-11-22T16:31:40.062Z,99814.22
2022-11-22T16:33:41.580Z,99811.66
2022-11-22T16:35:43.010Z,99818.63
2022-11-22T16:37:48.160Z,99813.41
2022-11-22T16:39:49.845Z,99823.03
2022-11-22T16:41:51.319Z,99819.56
2022-11-22T16:44:00.188Z,99827.38
2022-11-22T16:46:02.113Z,99819.63
2022-11-22T16:48:35.086Z,99825.75
2022-11-22T16:50:38.929Z,99828.41
2022-11-22T16:52:42.065Z,99831.03
2022-11-22T16:54:43.709Z,99829.28
2022-11-22T16:56:46.088Z,99829.31
2022-11-22T16:58:48.748Z,99822.31
2022-11-22T17:00:51.043Z,99819.69
2022-11-22T17:02:52.468Z,99822.31
2022-11-22T17:04:53.927Z,99817.09
2022-11-22T17:06:55.346Z,99825.78
2022-11-22T17:08:59.014Z,99821.50
2022-11-22T17:11:00.461Z,99818.03
2022-11-22T17:13:01.949Z,99818.94
2022-11-22T17:15:03.785Z,99824.19
2022-11-22T17:17:05.265Z,99821.59
2022-11-22T17:19:14.495Z,99818.97
2022-11-22T17:21:37.476Z,99818.94
2022-11-22T17:23:39.708Z,99819.88
2022-11-22T17:25:41.254Z,99819.03
2022-11-22T17:27:42.674Z,99816.47
2022-11-22T17:29:51.486Z,99825.19
2022-11-22T17:31:53.048Z,99830.47
2022-11-22T17:33:56.924Z,99832.25
2022-11-22T17:35:58.381Z,99833.16
2022-11-22T17:37:59.866Z,99841.06
2022-11-22T17:40:01.436Z,99839.44
2022-11-22T17:42:02.897Z,99849.13
2022-11-22T17:44:05.240Z,99851.81
2022-11-22T17:46:06.715Z,99851.03
2022-11-22T17:48:11.830Z,99860.72
2022-11-22T17:50:13.758Z,99859.03
2022-11-22T17:52:15.185Z,99855.66
2022-11-22T17:54:16.622Z,99857.44
2022-11-22T17:56:18.589Z,99860.06
2022-11-22T17:58:20.020Z,99860.97
2022-11-22T18:00:25.571Z,99863.56
2022-11-22T18:02:31.250Z,99870.56
2022-11-22T18:04:32.868Z,99872.34
2022-11-22T18:06:34.723Z,99872.38
2022-11-22T18:08:36.672Z,99876.75
2022-11-22T18:10:38.380Z,99883.72
2022-11-22T18:12:42.453Z,99874.16
2022-11-22T18:14:48.632Z,99876.81
2022-11-22T18:16:50.081Z,99888.97
2022-11-22T18:18:58.915Z,99886.41
2022-11-22T18:21:00.540Z,99880.28
2022-11-22T18:23:01.960Z,99884.66
2022-11-22T18:25:05.194Z,99877.66
2022-11-22T18:27:06.705Z,99882.91
2022-11-22T18:31:50.735Z,99876.03
2022-11-22T18:33:54.102Z,99881.28
2022-11-22T18:36:06.754Z,99886.47
2022-11-22T18:38:08.202Z,99885.63
2022-11-22T18:40:10.219Z,99875.22
2022-11-22T18:42:14.332Z,99885.66
2022-11-22T18:44:15.803Z,99870.88
2022-11-22T18:46:17.243Z,99874.38
2022-11-22T18:48:18.742Z,99876.13
2022-11-22T18:50:20.182Z,99875.25
2022-11-22T18:52:23.324Z,99883.13
2022-11-22T18:54:24.887Z,99887.50
2022-11-22T18:56:26.882Z,99890.09
2022-11-22T18:58:32.135Z,99886.63
2022-11-22T19:00:36.124Z,99882.31
2022-11-22T19:02:37.587Z,99881.38
2022-11-22T19:04:39.419Z,99884.88
2022-11-22T19:06:41.966Z,99890.16
2022-11-22T19:08:45.584Z,99888.38
2022-11-22T19:10:56.788Z,99894.47
2022-11-22T19:12:58.219Z,99889.28
2022-11-22T19:14:59.854Z,99884.09
2022-11-22T19:17:01.374Z,99883.22
2022-11-22T19:19:02.999Z,99875.38
2022-11-22T19:21:05.863Z,99880.59
2022-11-22T19:23:07.314Z,99871.06
2022-11-22T19:25:08.974Z,99866.72
2022-11-22T19:27:10.714Z,99856.28
2022-11-22T19:29:12.147Z,99863.25
2022-11-22T19:31:18.750Z,99853.72
2022-11-22T19:33:22.936Z,99855.47
2022-11-22T19:35:24.369Z,99856.34
2022-11-22T19:37:25.805Z,99855.50
2022-11-22T19:39:27.260Z,99845.94
2022-11-22T19:41:28.846Z,99846.81
2022-11-22T19:43:30.299Z,99847.69
2022-11-22T19:45:31.713Z,99857.25
2022-11-22T19:47:33.264Z,99844.25
2022-11-22T19:49:34.750Z,99846.00
2022-11-22T19:51:36.958Z,99845.13
2022-11-22T19:53:39.299Z,99845.16
2022-11-22T19:55:45.312Z,99840.78
2022-11-22T19:57:47.176Z,99845.16
2022-11-22T19:59:49.099Z,99844.31
2022-11-22T20:01:50.529Z,99851.25
2022-11-22T20:03:54.227Z,99859.09
2022-11-22T20:05:59.596Z,99860.84
2022-11-22T20:08:01.033Z,99859.97
2022-11-22T20:10:04.168Z,99861.72
2022-11-22T20:12:05.658Z,99859.97
2022-11-22T20:14:07.780Z,99864.34
2022-11-22T20:16:15.784Z,99863.44
2022-11-22T20:18:17.237Z,99862.59
2022-11-22T20:20:19.010Z,99860.81
2022-11-22T20:22:20.472Z,99857.34
2022-11-22T20:24:21.924Z,99870.38
2022-11-22T20:26:25.127Z,99870.38
2022-11-22T20:28:26.558Z,99877.28
2022-11-22T20:30:28.275Z,99870.31
2022-11-22T20:32:29.744Z,99872.94
2022-11-22T20:34:33.652Z,99874.66
2022-11-22T20:36:35.812Z,99873.78
2022-11-22T20:38:39.022Z,99877.28
2022-11-22T20:40:40.453Z,99878.13
2022-11-22T20:42:42.134Z,99880.72
2022-11-22T20:44:43.751Z,99876.34
2022-11-22T20:46:45.385Z,99873.72
2022-11-22T20:48:48.157Z,99870.22
2022-11-22T20:50:52.181Z,99864.09
2022-11-22T20:52:53.674Z,99871.94
2022-11-22T20:54:57.105Z,99871.94
2022-11-22T20:57:00.594Z,99868.44
2022-11-22T20:59:02.092Z,99861.44
2022-11-22T21:01:08.885Z,99864.88
2022-11-22T21:03:11.805Z,99857.03
2022-11-22T21:05:13.392Z,99857.03
2022-11-22T21:07:14.865Z,99860.50
2022-11-22T21:09:16.377Z,99863.09
2022-11-22T21:11:29.273Z,99873.50
2022-11-22T21:13:31.236Z,99871.75
2022-11-22T21:15:32.698Z,99864.75
2022-11-22T21:17:46.007Z,99869.09
2022-11-22T21:19:51.886Z,99869.94
2022-11-22T21:21:53.325Z,99866.44
2022-11-22T21:23:56.434Z,99865.56
2022-11-22T21:25:58.199Z,99864.66
2022-11-22T21:27:59.619Z,99862.91
2022-11-22T21:30:01.071Z,99868.13
2022-11-22T21:32:02.572Z,99872.47
2022-11-22T21:34:04.042Z,99876.84
2022-11-22T21:36:07.112Z,99877.69
2022-11-22T21:38:08.549Z,99875.09
2022-11-22T21:40:10.731Z,99882.91
2022-11-22T21:42:12.161Z,99874.19
2022-11-22T21:44:13.989Z,99882.00
2022-11-22T21:46:15.811Z,99879.38
2022-11-22T21:48:18.395Z,99881.13
2022-11-22T21:50:19.954Z,99886.31
2022-11-22T21:52:21.388Z,99880.19
2022-11-22T21:54:22.866Z,99871.50
2022-11-22T21:56:24.782Z,99875.84
2022-11-22T21:58:26.348Z,99889.75
2022-11-22T22:00:28.124Z,99889.78
2022-11-22T22:02:30.648Z,99888.03
2022-11-22T22:04:32.088Z,99890.66
2022-11-22T22:06:33.571Z,99888.03
2022-11-22T22:08:35.317Z,99882.78
2022-11-22T22:10:36.840Z,99884.50
2022-11-22T22:12:39.554Z,99894.94
2022-11-22T22:14:41.008Z,99886.22
2022-11-22T22:16:42.563Z,99887.94
2022-11-22T22:18:44.962Z,99886.19
2022-11-22T22:20:46.396Z,99882.69
2022-11-22T22:22:48.777Z,99893.09
2022-11-22T22:24:50.246Z,99896.56
2022-11-22T22:26:51.710Z,99902.59
2022-11-22T22:28:53.389Z,99903.44
2022-11-22T22:31:22.670Z,99894.69
2022-11-22T22:33:24.224Z,99893.81
2022-11-22T22:35:25.692Z,99902.50
2022-11-22T22:37:27.277Z,99898.09
2022-11-22T22:39:29.246Z,99902.41
2022-11-22T22:41:31.295Z,99904.13
2022-11-22T22:43:35.810Z,99905.81
2022-11-22T22:45:37.285Z,99906.66
2022-11-22T22:47:38.705Z,99912.69
2022-11-22T22:49:40.157Z,99910.03
2022-11-22T22:51:41.650Z,99907.38
2022-11-22T22:53:44.314Z,99917.78
2022-11-22T22:55:54.127Z,99910.75
2022-11-22T22:57:57.459Z,99907.25
2022-11-22T22:59:58.987Z,99902.84
2022-11-22T23:02:00.497Z,99906.31
2022-11-22T23:04:02.543Z,99901.94
2022-11-22T23:06:09.079Z,99902.75
2022-11-22T23:08:10.872Z,99900.09
2022-11-22T23:10:12.364Z,99907.91
2022-11-22T23:12:13.850Z,99895.69
2022-11-22T23:14:18.638Z,99909.59
2022-11-22T23:16:20.112Z,99906.06
2022-11-22T23:18:21.555Z,99903.44
2022-11-22T23:20:24.988Z,99907.75
2022-11-22T23:22:26.452Z,99902.50
2022-11-22T23:24:32.688Z,99901.53
2022-11-22T23:26:34.424Z,99898.03
2022-11-22T23:28:36.499Z,99902.38
2022-11-22T23:30:37.923Z,99902.34
2022-11-22T23:32:39.371Z,99901.44
2022-11-22T23:34:40.807Z,99898.81
2022-11-22T23:36:42.272Z,99897.03
2022-11-22T23:38:44.107Z,99890.88
2022-11-22T23:40:52.791Z,99901.31
2022-11-22T23:42:58.192Z,99892.53
2022-11-22T23:44:59.704Z,99896.88
2022-11-22T23:47:01.144Z,99895.09
2022-11-22T23:49:03.687Z,99897.69
2022-11-22T23:51:05.257Z,99900.25
2022-11-22T23:53:06.743Z,99904.59
2022-11-22T23:55:08.231Z,99896.75
2022-11-22T23:57:09.665Z,99906.34
2022-11-22T23:59:11.115Z,99908.06
